sensor_id;sensor_type;location;lat;lon;timestamp;P1;durP1;ratioP1;P2;durP2;ratioP2
16401;SDS011;8310;44.626;11.176;2023-09-08T00:00:11;9.45;;;5.20;;
16401;SDS011;8310;44.626;11.176;2023-09-08T00:02:39;10.65;;;5.75;;
16401;SDS011;8310;44.626;11.176;2023-09-08T00:05:07;7.38;;;5.53;;
16401;SDS011;8310;44.626;11.176;2023-09-08T00:07:35;8.63;;;4.97;;
16401;SDS011;8310;44.626;11.176;2023-09-08T00:10:03;7.63;;;5.07;;
16401;SDS011;8310;44.626;11.176;2023-09-08T00:12:32;13.25;;;5.40;;
16401;SDS011;8310;44.626;11.176;2023-09-08T00:15:02;13.57;;;5.47;;
16401;SDS011;8310;44.626;11.176;2023-09-08T00:17:30;12.02;;;6.95;;
16401;SDS011;8310;44.626;11.176;2023-09-08T00:19:58;10.10;;;5.45;;
16401;SDS011;8310;44.626;11.176;2023-09-08T00:22:26;8.98;;;5.30;;
16401;SDS011;8310;44.626;11.176;2023-09-08T00:24:53;6.97;;;5.53;;
16401;SDS011;8310;44.626;11.176;2023-09-08T00:27:21;11.25;;;5.45;;
16401;SDS011;8310;44.626;11.176;2023-09-08T00:29:48;11.02;;;6.20;;
16401;SDS011;8310;44.626;11.176;2023-09-08T00:32:17;10.98;;;6.30;;
16401;SDS011;8310;44.626;11.176;2023-09-08T00:34:45;10.75;;;5.97;;
16401;SDS011;8310;44.626;11.176;2023-09-08T00:37:12;10.98;;;6.07;;
16401;SDS011;8310;44.626;11.176;2023-09-08T00:39:39;9.82;;;5.93;;
16401;SDS011;8310;44.626;11.176;2023-09-08T00:42:07;15.38;;;6.43;;
16401;SDS011;8310;44.626;11.176;2023-09-08T00:44:34;13.20;;;8.07;;
16401;SDS011;8310;44.626;11.176;2023-09-08T00:47:01;13.93;;;7.22;;
16401;SDS011;8310;44.626;11.176;2023-09-08T00:49:30;11.10;;;7.35;;
16401;SDS011;8310;44.626;11.176;2023-09-08T00:51:58;14.27;;;6.25;;
16401;SDS011;8310;44.626;11.176;2023-09-08T00:54:26;11.20;;;6.97;;
16401;SDS011;8310;44.626;11.176;2023-09-08T00:56:54;12.30;;;6.20;;
16401;SDS011;8310;44.626;11.176;2023-09-08T00:59:23;9.07;;;6.38;;
16401;SDS011;8310;44.626;11.176;2023-09-08T01:01:51;9.00;;;6.00;;
16401;SDS011;8310;44.626;11.176;2023-09-08T01:04:20;7.85;;;6.22;;
16401;SDS011;8310;44.626;11.176;2023-09-08T01:06:49;8.82;;;6.18;;
16401;SDS011;8310;44.626;11.176;2023-09-08T01:09:17;12.70;;;6.13;;
16401;SDS011;8310;44.626;11.176;2023-09-08T01:11:44;11.43;;;6.03;;
16401;SDS011;8310;44.626;11.176;2023-09-08T01:14:12;10.25;;;6.20;;
16401;SDS011;8310;44.626;11.176;2023-09-08T01:16:40;9.95;;;6.00;;
16401;SDS011;8310;44.626;11.176;2023-09-08T01:19:08;9.48;;;7.22;;
16401;SDS011;8310;44.626;11.176;2023-09-08T01:27:48;9.57;;;5.72;;
16401;SDS011;8310;44.626;11.176;2023-09-08T01:30:17;9.57;;;6.35;;
16401;SDS011;8310;44.626;11.176;2023-09-08T01:35:13;11.18;;;7.30;;
16401;SDS011;8310;44.626;11.176;2023-09-08T01:37:42;11.70;;;7.15;;
16401;SDS011;8310;44.626;11.176;2023-09-08T01:40:12;9.13;;;6.95;;
16401;SDS011;8310;44.626;11.176;2023-09-08T01:42:40;11.18;;;7.38;;
16401;SDS011;8310;44.626;11.176;2023-09-08T01:45:08;12.73;;;8.45;;
16401;SDS011;8310;44.626;11.176;2023-09-08T01:47:36;13.13;;;7.40;;
16401;SDS011;8310;44.626;11.176;2023-09-08T01:50:03;13.13;;;7.35;;
16401;SDS011;8310;44.626;11.176;2023-09-08T01:52:32;9.77;;;8.50;;
16401;SDS011;8310;44.626;11.176;2023-09-08T01:54:59;13.98;;;7.70;;
16401;SDS011;8310;44.626;11.176;2023-09-08T01:57:27;12.02;;;7.97;;
16401;SDS011;8310;44.626;11.176;2023-09-08T01:59:55;13.93;;;7.82;;
16401;SDS011;8310;44.626;11.176;2023-09-08T02:02:23;9.95;;;8.48;;
16401;SDS011;8310;44.626;11.176;2023-09-08T02:04:51;17.25;;;7.88;;
16401;SDS011;8310;44.626;11.176;2023-09-08T02:07:18;10.68;;;6.05;;
16401;SDS011;8310;44.626;11.176;2023-09-08T02:09:46;12.63;;;6.38;;
16401;SDS011;8310;44.626;11.176;2023-09-08T02:12:13;12.52;;;6.47;;
16401;SDS011;8310;44.626;11.176;2023-09-08T02:14:41;9.82;;;6.43;;
16401;SDS011;8310;44.626;11.176;2023-09-08T02:17:10;8.45;;;6.70;;
16401;SDS011;8310;44.626;11.176;2023-09-08T02:19:38;8.90;;;5.72;;
16401;SDS011;8310;44.626;11.176;2023-09-08T02:22:05;8.30;;;5.85;;
16401;SDS011;8310;44.626;11.176;2023-09-08T02:24:33;8.85;;;5.53;;
16401;SDS011;8310;44.626;11.176;2023-09-08T02:27:00;8.77;;;6.65;;
16401;SDS011;8310;44.626;11.176;2023-09-08T02:29:28;7.97;;;6.25;;
16401;SDS011;8310;44.626;11.176;2023-09-08T02:31:55;7.63;;;6.90;;
16401;SDS011;8310;44.626;11.176;2023-09-08T02:34:24;11.38;;;6.57;;
16401;SDS011;8310;44.626;11.176;2023-09-08T02:36:51;5.72;;;5.07;;
16401;SDS011;8310;44.626;11.176;2023-09-08T02:39:19;7.15;;;5.60;;
16401;SDS011;8310;44.626;11.176;2023-09-08T02:41:48;12.05;;;5.57;;
16401;SDS011;8310;44.626;11.176;2023-09-08T02:44:16;10.43;;;6.03;;
16401;SDS011;8310;44.626;11.176;2023-09-08T02:46:43;10.20;;;6.65;;
16401;SDS011;8310;44.626;11.176;2023-09-08T02:49:10;7.35;;;6.13;;
16401;SDS011;8310;44.626;11.176;2023-09-08T02:51:39;8.63;;;6.03;;
16401;SDS011;8310;44.626;11.176;2023-09-08T02:54:07;7.55;;;5.53;;
16401;SDS011;8310;44.626;11.176;2023-09-08T02:56:36;9.65;;;5.68;;
16401;SDS011;8310;44.626;11.176;2023-09-08T02:59:03;8.98;;;5.72;;
16401;SDS011;8310;44.626;11.176;2023-09-08T03:01:30;9.55;;;5.95;;
16401;SDS011;8310;44.626;11.176;2023-09-08T03:03:58;7.32;;;6.22;;
16401;SDS011;8310;44.626;11.176;2023-09-08T03:06:26;10.85;;;6.82;;
16401;SDS011;8310;44.626;11.176;2023-09-08T03:08:54;13.50;;;6.57;;
16401;SDS011;8310;44.626;11.176;2023-09-08T03:11:22;9.23;;;6.78;;
16401;SDS011;8310;44.626;11.176;2023-09-08T03:13:50;12.85;;;6.97;;
16401;SDS011;8310;44.626;11.176;2023-09-08T03:16:17;14.13;;;6.88;;
16401;SDS011;8310;44.626;11.176;2023-09-08T03:18:45;11.43;;;6.68;;
16401;SDS011;8310;44.626;11.176;2023-09-08T03:21:13;10.55;;;6.60;;
16401;SDS011;8310;44.626;11.176;2023-09-08T03:26:10;9.65;;;6.57;;
16401;SDS011;8310;44.626;11.176;2023-09-08T03:28:37;10.30;;;7.03;;
16401;SDS011;8310;44.626;11.176;2023-09-08T03:31:07;9.40;;;5.85;;
16401;SDS011;8310;44.626;11.176;2023-09-08T03:33:35;7.72;;;5.85;;
16401;SDS011;8310;44.626;11.176;2023-09-08T03:36:02;9.75;;;6.68;;
16401;SDS011;8310;44.626;11.176;2023-09-08T03:38:30;8.75;;;5.45;;
16401;SDS011;8310;44.626;11.176;2023-09-08T03:40:57;9.05;;;5.55;;
16401;SDS011;8310;44.626;11.176;2023-09-08T03:43:26;11.95;;;5.15;;
16401;SDS011;8310;44.626;11.176;2023-09-08T03:45:54;7.18;;;5.20;;
16401;SDS011;8310;44.626;11.176;2023-09-08T03:48:22;9.63;;;5.72;;
16401;SDS011;8310;44.626;11.176;2023-09-08T03:50:49;7.47;;;5.72;;
16401;SDS011;8310;44.626;11.176;2023-09-08T03:53:17;9.05;;;5.53;;
16401;SDS011;8310;44.626;11.176;2023-09-08T03:55:45;7.45;;;5.85;;
16401;SDS011;8310;44.626;11.176;2023-09-08T03:58:12;9.73;;;6.03;;
16401;SDS011;8310;44.626;11.176;2023-09-08T04:00:42;12.63;;;5.60;;
16401;SDS011;8310;44.626;11.176;2023-09-08T04:03:10;8.50;;;5.65;;
16401;SDS011;8310;44.626;11.176;2023-09-08T04:05:38;10.15;;;5.43;;
16401;SDS011;8310;44.626;11.176;2023-09-08T04:08:06;10.80;;;5.78;;
16401;SDS011;8310;44.626;11.176;2023-09-08T04:10:34;7.30;;;5.18;;
16401;SDS011;8310;44.626;11.176;2023-09-08T04:13:01;7.55;;;5.78;;
16401;SDS011;8310;44.626;11.176;2023-09-08T04:15:28;8.05;;;6.18;;
16401;SDS011;8310;44.626;11.176;2023-09-08T04:17:57;12.05;;;5.78;;
16401;SDS011;8310;44.626;11.176;2023-09-08T04:20:25;7.63;;;5.65;;
16401;SDS011;8310;44.626;11.176;2023-09-08T04:22:52;9.10;;;6.50;;
16401;SDS011;8310;44.626;11.176;2023-09-08T04:25:19;10.38;;;6.18;;
16401;SDS011;8310;44.626;11.176;2023-09-08T04:27:48;7.80;;;5.75;;
16401;SDS011;8310;44.626;11.176;2023-09-08T04:30:16;7.60;;;5.40;;
16401;SDS011;8310;44.626;11.176;2023-09-08T04:32:44;10.80;;;6.05;;
16401;SDS011;8310;44.626;11.176;2023-09-08T04:35:13;9.10;;;6.32;;
16401;SDS011;8310;44.626;11.176;2023-09-08T04:37:40;11.48;;;6.50;;
16401;SDS011;8310;44.626;11.176;2023-09-08T04:40:08;8.40;;;6.45;;
16401;SDS011;8310;44.626;11.176;2023-09-08T04:42:36;12.02;;;6.30;;
16401;SDS011;8310;44.626;11.176;2023-09-08T04:45:04;11.45;;;6.63;;
16401;SDS011;8310;44.626;11.176;2023-09-08T04:47:32;10.93;;;6.90;;
16401;SDS011;8310;44.626;11.176;2023-09-08T04:49:59;8.55;;;6.75;;
16401;SDS011;8310;44.626;11.176;2023-09-08T04:52:28;12.80;;;7.38;;
16401;SDS011;8310;44.626;11.176;2023-09-08T04:54:56;9.40;;;7.10;;
16401;SDS011;8310;44.626;11.176;2023-09-08T04:57:23;10.77;;;8.00;;
16401;SDS011;8310;44.626;11.176;2023-09-08T04:59:51;10.27;;;6.95;;
16401;SDS011;8310;44.626;11.176;2023-09-08T05:02:19;9.85;;;7.55;;
16401;SDS011;8310;44.626;11.176;2023-09-08T05:04:46;10.82;;;8.00;;
16401;SDS011;8310;44.626;11.176;2023-09-08T05:07:13;16.42;;;7.93;;
16401;SDS011;8310;44.626;11.176;2023-09-08T05:09:43;10.57;;;7.20;;
16401;SDS011;8310;44.626;11.176;2023-09-08T05:12:11;10.27;;;7.65;;
16401;SDS011;8310;44.626;11.176;2023-09-08T05:14:38;7.63;;;6.40;;
16401;SDS011;8310;44.626;11.176;2023-09-08T05:17:06;11.30;;;6.03;;
16401;SDS011;8310;44.626;11.176;2023-09-08T05:19:33;12.85;;;6.75;;
16401;SDS011;8310;44.626;11.176;2023-09-08T05:22:02;11.93;;;6.82;;
16401;SDS011;8310;44.626;11.176;2023-09-08T05:24:31;8.90;;;6.60;;
16401;SDS011;8310;44.626;11.176;2023-09-08T05:27:00;12.48;;;6.40;;
16401;SDS011;8310;44.626;11.176;2023-09-08T05:29:27;12.80;;;6.43;;
16401;SDS011;8310;44.626;11.176;2023-09-08T05:31:55;12.70;;;5.95;;
16401;SDS011;8310;44.626;11.176;2023-09-08T05:34:22;9.80;;;6.13;;
16401;SDS011;8310;44.626;11.176;2023-09-08T05:36:50;8.35;;;6.10;;
16401;SDS011;8310;44.626;11.176;2023-09-08T05:39:17;7.57;;;6.30;;
16401;SDS011;8310;44.626;11.176;2023-09-08T05:41:45;15.80;;;6.55;;
16401;SDS011;8310;44.626;11.176;2023-09-08T05:44:14;15.35;;;6.60;;
16401;SDS011;8310;44.626;11.176;2023-09-08T05:46:41;13.60;;;7.32;;
16401;SDS011;8310;44.626;11.176;2023-09-08T05:49:09;11.88;;;6.80;;
16401;SDS011;8310;44.626;11.176;2023-09-08T05:51:36;9.57;;;8.13;;
16401;SDS011;8310;44.626;11.176;2023-09-08T05:54:03;8.23;;;6.88;;
16401;SDS011;8310;44.626;11.176;2023-09-08T05:56:31;9.02;;;7.13;;
16401;SDS011;8310;44.626;11.176;2023-09-08T06:01:29;16.95;;;7.38;;
16401;SDS011;8310;44.626;11.176;2023-09-08T06:03:57;14.20;;;7.88;;
16401;SDS011;8310;44.626;11.176;2023-09-08T06:06:23;11.77;;;7.65;;
16401;SDS011;8310;44.626;11.176;2023-09-08T06:08:53;10.18;;;7.78;;
16401;SDS011;8310;44.626;11.176;2023-09-08T06:11:20;11.13;;;7.60;;
16401;SDS011;8310;44.626;11.176;2023-09-08T06:13:47;26.40;;;7.75;;
16401;SDS011;8310;44.626;11.176;2023-09-08T06:16:15;12.55;;;8.05;;
16401;SDS011;8310;44.626;11.176;2023-09-08T06:18:44;16.42;;;9.25;;
16401;SDS011;8310;44.626;11.176;2023-09-08T06:21:12;11.43;;;8.25;;
16401;SDS011;8310;44.626;11.176;2023-09-08T06:23:39;12.25;;;8.38;;
16401;SDS011;8310;44.626;11.176;2023-09-08T06:26:07;13.60;;;8.40;;
16401;SDS011;8310;44.626;11.176;2023-09-08T06:28:34;16.00;;;8.32;;
16401;SDS011;8310;44.626;11.176;2023-09-08T06:31:03;13.98;;;8.20;;
16401;SDS011;8310;44.626;11.176;2023-09-08T06:33:31;17.02;;;8.55;;
16401;SDS011;8310;44.626;11.176;2023-09-08T06:36:00;16.02;;;9.00;;
16401;SDS011;8310;44.626;11.176;2023-09-08T06:38:28;14.18;;;8.68;;
16401;SDS011;8310;44.626;11.176;2023-09-08T06:40:56;11.55;;;9.00;;
16401;SDS011;8310;44.626;11.176;2023-09-08T06:43:23;20.95;;;10.20;;
16401;SDS011;8310;44.626;11.176;2023-09-08T06:45:51;10.55;;;8.80;;
16401;SDS011;8310;44.626;11.176;2023-09-08T06:48:18;14.25;;;8.75;;
16401;SDS011;8310;44.626;11.176;2023-09-08T06:50:46;17.42;;;9.35;;
16401;SDS011;8310;44.626;11.176;2023-09-08T06:53:15;14.60;;;9.18;;
16401;SDS011;8310;44.626;11.176;2023-09-08T06:55:42;14.75;;;9.00;;
16401;SDS011;8310;44.626;11.176;2023-09-08T06:58:10;16.35;;;9.27;;
16401;SDS011;8310;44.626;11.176;2023-09-08T07:00:37;22.55;;;9.60;;
16401;SDS011;8310;44.626;11.176;2023-09-08T07:03:05;16.42;;;9.52;;
16401;SDS011;8310;44.626;11.176;2023-09-08T07:05:33;18.25;;;10.20;;
16401;SDS011;8310;44.626;11.176;2023-09-08T07:08:00;17.40;;;10.05;;
16401;SDS011;8310;44.626;11.176;2023-09-08T07:10:29;16.90;;;9.60;;
16401;SDS011;8310;44.626;11.176;2023-09-08T07:12:57;14.05;;;9.73;;
16401;SDS011;8310;44.626;11.176;2023-09-08T07:15:24;19.20;;;8.80;;
16401;SDS011;8310;44.626;11.176;2023-09-08T07:17:51;14.63;;;9.05;;
16401;SDS011;8310;44.626;11.176;2023-09-08T07:20:19;14.10;;;8.95;;
16401;SDS011;8310;44.626;11.176;2023-09-08T07:22:47;41.30;;;9.30;;
16401;SDS011;8310;44.626;11.176;2023-09-08T07:25:16;17.27;;;9.38;;
16401;SDS011;8310;44.626;11.176;2023-09-08T07:27:46;18.05;;;8.88;;
16401;SDS011;8310;44.626;11.176;2023-09-08T07:30:13;29.85;;;9.15;;
16401;SDS011;8310;44.626;11.176;2023-09-08T07:32:41;27.52;;;9.27;;
16401;SDS011;8310;44.626;11.176;2023-09-08T07:35:09;20.50;;;10.27;;
16401;SDS011;8310;44.626;11.176;2023-09-08T07:37:39;19.90;;;9.18;;
16401;SDS011;8310;44.626;11.176;2023-09-08T07:40:07;14.45;;;7.97;;
16401;SDS011;8310;44.626;11.176;2023-09-08T07:42:35;16.30;;;8.23;;
16401;SDS011;8310;44.626;11.176;2023-09-08T07:45:06;13.05;;;8.38;;
16401;SDS011;8310;44.626;11.176;2023-09-08T07:47:34;14.65;;;7.65;;
16401;SDS011;8310;44.626;11.176;2023-09-08T07:50:16;12.02;;;7.35;;
16401;SDS011;8310;44.626;11.176;2023-09-08T07:52:45;14.35;;;7.70;;
16401;SDS011;8310;44.626;11.176;2023-09-08T07:55:12;13.52;;;7.13;;
16401;SDS011;8310;44.626;11.176;2023-09-08T07:57:40;20.17;;;6.57;;
16401;SDS011;8310;44.626;11.176;2023-09-08T08:00:10;18.08;;;6.25;;
16401;SDS011;8310;44.626;11.176;2023-09-08T08:02:39;14.40;;;6.10;;
16401;SDS011;8310;44.626;11.176;2023-09-08T08:05:09;13.57;;;6.28;;
16401;SDS011;8310;44.626;11.176;2023-09-08T08:07:37;11.40;;;5.53;;
16401;SDS011;8310;44.626;11.176;2023-09-08T08:12:33;16.95;;;5.55;;
16401;SDS011;8310;44.626;11.176;2023-09-08T08:15:00;9.20;;;5.32;;
16401;SDS011;8310;44.626;11.176;2023-09-08T08:17:29;13.18;;;6.03;;
16401;SDS011;8310;44.626;11.176;2023-09-08T08:19:56;12.38;;;5.22;;
16401;SDS011;8310;44.626;11.176;2023-09-08T08:22:31;15.77;;;5.47;;
16401;SDS011;8310;44.626;11.176;2023-09-08T08:24:58;7.90;;;4.53;;
16401;SDS011;8310;44.626;11.176;2023-09-08T08:27:26;9.55;;;4.78;;
16401;SDS011;8310;44.626;11.176;2023-09-08T08:29:54;14.27;;;4.53;;
16401;SDS011;8310;44.626;11.176;2023-09-08T08:32:22;10.38;;;4.78;;
16401;SDS011;8310;44.626;11.176;2023-09-08T08:34:51;17.73;;;5.07;;
16401;SDS011;8310;44.626;11.176;2023-09-08T08:37:19;10.95;;;4.68;;
16401;SDS011;8310;44.626;11.176;2023-09-08T08:39:47;15.20;;;5.90;;
16401;SDS011;8310;44.626;11.176;2023-09-08T08:42:14;10.25;;;4.55;;
16401;SDS011;8310;44.626;11.176;2023-09-08T08:44:41;7.95;;;4.78;;
16401;SDS011;8310;44.626;11.176;2023-09-08T08:47:10;12.20;;;4.55;;
16401;SDS011;8310;44.626;11.176;2023-09-08T08:49:41;8.88;;;4.30;;
16401;SDS011;8310;44.626;11.176;2023-09-08T08:52:13;10.35;;;4.07;;
16401;SDS011;8310;44.626;11.176;2023-09-08T08:54:42;10.13;;;4.85;;
16401;SDS011;8310;44.626;11.176;2023-09-08T08:57:11;7.82;;;3.90;;
16401;SDS011;8310;44.626;11.176;2023-09-08T08:59:38;10.82;;;4.20;;
16401;SDS011;8310;44.626;11.176;2023-09-08T09:02:07;11.32;;;4.10;;
16401;SDS011;8310;44.626;11.176;2023-09-08T09:04:36;9.32;;;4.70;;
16401;SDS011;8310;44.626;11.176;2023-09-08T09:07:05;8.52;;;4.50;;
16401;SDS011;8310;44.626;11.176;2023-09-08T09:09:35;9.00;;;4.45;;
16401;SDS011;8310;44.626;11.176;2023-09-08T09:12:02;7.03;;;3.90;;
16401;SDS011;8310;44.626;11.176;2023-09-08T09:14:31;9.75;;;3.50;;
16401;SDS011;8310;44.626;11.176;2023-09-08T09:17:00;5.60;;;3.70;;
16401;SDS011;8310;44.626;11.176;2023-09-08T09:19:30;6.28;;;4.40;;
16401;SDS011;8310;44.626;11.176;2023-09-08T09:21:58;13.32;;;4.53;;
16401;SDS011;8310;44.626;11.176;2023-09-08T09:24:30;5.85;;;3.60;;
16401;SDS011;8310;44.626;11.176;2023-09-08T09:27:01;6.50;;;3.75;;
16401;SDS011;8310;44.626;11.176;2023-09-08T09:29:29;8.55;;;3.88;;
16401;SDS011;8310;44.626;11.176;2023-09-08T09:31:57;6.80;;;3.67;;
16401;SDS011;8310;44.626;11.176;2023-09-08T09:34:29;8.15;;;3.83;;
16401;SDS011;8310;44.626;11.176;2023-09-08T09:36:56;7.13;;;4.20;;
16401;SDS011;8310;44.626;11.176;2023-09-08T09:39:24;8.90;;;3.85;;
16401;SDS011;8310;44.626;11.176;2023-09-08T09:41:53;14.85;;;4.13;;
16401;SDS011;8310;44.626;11.176;2023-09-08T09:44:23;13.18;;;4.55;;
16401;SDS011;8310;44.626;11.176;2023-09-08T09:46:51;8.48;;;3.42;;
16401;SDS011;8310;44.626;11.176;2023-09-08T09:49:20;12.85;;;3.90;;
16401;SDS011;8310;44.626;11.176;2023-09-08T09:51:49;5.93;;;3.60;;
16401;SDS011;8310;44.626;11.176;2023-09-08T09:54:17;7.78;;;3.88;;
16401;SDS011;8310;44.626;11.176;2023-09-08T09:56:44;9.85;;;3.90;;
16401;SDS011;8310;44.626;11.176;2023-09-08T09:59:12;6.07;;;3.72;;
16401;SDS011;8310;44.626;11.176;2023-09-08T10:01:42;10.18;;;3.72;;
16401;SDS011;8310;44.626;11.176;2023-09-08T10:04:09;5.57;;;3.95;;
16401;SDS011;8310;44.626;11.176;2023-09-08T10:06:37;9.60;;;3.80;;
16401;SDS011;8310;44.626;11.176;2023-09-08T10:09:06;9.55;;;3.92;;
16401;SDS011;8310;44.626;11.176;2023-09-08T10:11:39;13.23;;;4.05;;
16401;SDS011;8310;44.626;11.176;2023-09-08T10:14:09;9.23;;;3.65;;
16401;SDS011;8310;44.626;11.176;2023-09-08T10:16:39;7.45;;;3.72;;
16401;SDS011;8310;44.626;11.176;2023-09-08T10:19:09;6.05;;;3.75;;
16401;SDS011;8310;44.626;11.176;2023-09-08T10:21:39;13.05;;;3.55;;
16401;SDS011;8310;44.626;11.176;2023-09-08T10:24:11;6.78;;;3.53;;
16401;SDS011;8310;44.626;11.176;2023-09-08T10:26:43;10.70;;;3.83;;
16401;SDS011;8310;44.626;11.176;2023-09-08T10:29:13;8.85;;;3.90;;
16401;SDS011;8310;44.626;11.176;2023-09-08T10:31:42;7.28;;;3.67;;
16401;SDS011;8310;44.626;11.176;2023-09-08T10:34:15;5.68;;;3.85;;
16401;SDS011;8310;44.626;11.176;2023-09-08T10:36:43;6.20;;;4.15;;
16401;SDS011;8310;44.626;11.176;2023-09-08T10:44:57;12.25;;;3.80;;
16401;SDS011;8310;44.626;11.176;2023-09-08T10:50:00;12.02;;;4.00;;
16401;SDS011;8310;44.626;11.176;2023-09-08T10:52:28;7.35;;;3.80;;
16401;SDS011;8310;44.626;11.176;2023-09-08T10:54:58;9.88;;;4.18;;
16401;SDS011;8310;44.626;11.176;2023-09-08T10:57:27;9.52;;;3.53;;
16401;SDS011;8310;44.626;11.176;2023-09-08T10:59:56;7.85;;;3.78;;
16401;SDS011;8310;44.626;11.176;2023-09-08T11:02:33;8.73;;;3.45;;
16401;SDS011;8310;44.626;11.176;2023-09-08T11:05:03;6.53;;;4.65;;
16401;SDS011;8310;44.626;11.176;2023-09-08T11:07:34;7.97;;;3.92;;
16401;SDS011;8310;44.626;11.176;2023-09-08T11:10:05;6.63;;;4.07;;
16401;SDS011;8310;44.626;11.176;2023-09-08T11:12:33;8.20;;;3.97;;
16401;SDS011;8310;44.626;11.176;2023-09-08T11:15:01;9.32;;;3.65;;
16401;SDS011;8310;44.626;11.176;2023-09-08T11:17:32;9.82;;;3.67;;
16401;SDS011;8310;44.626;11.176;2023-09-08T11:20:01;8.38;;;3.80;;
16401;SDS011;8310;44.626;11.176;2023-09-08T11:22:33;10.07;;;3.72;;
16401;SDS011;8310;44.626;11.176;2023-09-08T11:25:02;6.20;;;3.55;;
16401;SDS011;8310;44.626;11.176;2023-09-08T11:27:33;8.65;;;3.53;;
16401;SDS011;8310;44.626;11.176;2023-09-08T11:30:00;10.80;;;3.70;;
16401;SDS011;8310;44.626;11.176;2023-09-08T11:32:31;9.15;;;3.40;;
16401;SDS011;8310;44.626;11.176;2023-09-08T11:35:02;9.15;;;3.95;;
16401;SDS011;8310;44.626;11.176;2023-09-08T11:37:34;8.77;;;3.83;;
16401;SDS011;8310;44.626;11.176;2023-09-08T11:40:03;6.20;;;3.78;;
16401;SDS011;8310;44.626;11.176;2023-09-08T11:42:34;8.52;;;4.10;;
16401;SDS011;8310;44.626;11.176;2023-09-08T11:47:29;5.75;;;3.17;;
16401;SDS011;8310;44.626;11.176;2023-09-08T11:49:57;10.50;;;3.85;;
16401;SDS011;8310;44.626;11.176;2023-09-08T11:52:27;9.10;;;3.65;;
16401;SDS011;8310;44.626;11.176;2023-09-08T11:54:54;9.45;;;3.22;;
16401;SDS011;8310;44.626;11.176;2023-09-08T11:57:22;11.32;;;3.85;;
16401;SDS011;8310;44.626;11.176;2023-09-08T11:59:50;8.68;;;3.53;;
16401;SDS011;8310;44.626;11.176;2023-09-08T12:02:19;6.97;;;3.47;;
16401;SDS011;8310;44.626;11.176;2023-09-08T12:04:47;12.05;;;3.40;;
16401;SDS011;8310;44.626;11.176;2023-09-08T12:07:15;10.63;;;3.60;;
16401;SDS011;8310;44.626;11.176;2023-09-08T12:09:46;5.63;;;3.50;;
16401;SDS011;8310;44.626;11.176;2023-09-08T12:12:14;5.40;;;3.35;;
16401;SDS011;8310;44.626;11.176;2023-09-08T12:14:41;6.50;;;3.38;;
16401;SDS011;8310;44.626;11.176;2023-09-08T12:17:09;6.03;;;3.42;;
16401;SDS011;8310;44.626;11.176;2023-09-08T12:19:38;13.35;;;3.33;;
16401;SDS011;8310;44.626;11.176;2023-09-08T12:22:06;8.70;;;3.60;;
16401;SDS011;8310;44.626;11.176;2023-09-08T12:24:49;9.82;;;3.53;;
16401;SDS011;8310;44.626;11.176;2023-09-08T12:27:23;8.68;;;3.55;;
16401;SDS011;8310;44.626;11.176;2023-09-08T12:29:52;11.40;;;3.42;;
16401;SDS011;8310;44.626;11.176;2023-09-08T12:32:20;7.03;;;3.67;;
16401;SDS011;8310;44.626;11.176;2023-09-08T12:34:48;7.43;;;3.40;;
16401;SDS011;8310;44.626;11.176;2023-09-08T12:37:19;9.70;;;3.25;;
16401;SDS011;8310;44.626;11.176;2023-09-08T12:39:49;10.15;;;3.80;;
16401;SDS011;8310;44.626;11.176;2023-09-08T12:42:17;8.65;;;3.45;;
16401;SDS011;8310;44.626;11.176;2023-09-08T12:47:11;5.93;;;3.58;;
16401;SDS011;8310;44.626;11.176;2023-09-08T12:49:39;7.65;;;4.10;;
16401;SDS011;8310;44.626;11.176;2023-09-08T12:52:07;7.80;;;3.42;;
16401;SDS011;8310;44.626;11.176;2023-09-08T12:54:34;9.82;;;3.75;;
16401;SDS011;8310;44.626;11.176;2023-09-08T12:57:03;6.25;;;3.53;;
16401;SDS011;8310;44.626;11.176;2023-09-08T12:59:31;7.93;;;3.55;;
16401;SDS011;8310;44.626;11.176;2023-09-08T13:01:58;9.73;;;3.47;;
16401;SDS011;8310;44.626;11.176;2023-09-08T13:04:26;5.55;;;3.38;;
16401;SDS011;8310;44.626;11.176;2023-09-08T13:06:53;5.75;;;3.33;;
16401;SDS011;8310;44.626;11.176;2023-09-08T13:09:23;12.77;;;4.20;;
16401;SDS011;8310;44.626;11.176;2023-09-08T13:11:50;5.93;;;3.47;;
16401;SDS011;8310;44.626;11.176;2023-09-08T13:14:20;9.93;;;3.80;;
16401;SDS011;8310;44.626;11.176;2023-09-08T13:16:47;8.50;;;3.30;;
16401;SDS011;8310;44.626;11.176;2023-09-08T13:19:15;8.25;;;3.25;;
16401;SDS011;8310;44.626;11.176;2023-09-08T13:24:09;14.90;;;3.40;;
16401;SDS011;8310;44.626;11.176;2023-09-08T13:26:37;8.50;;;3.38;;
16401;SDS011;8310;44.626;11.176;2023-09-08T13:29:05;7.45;;;3.42;;
16401;SDS011;8310;44.626;11.176;2023-09-08T13:31:34;6.68;;;3.40;;
16401;SDS011;8310;44.626;11.176;2023-09-08T13:34:01;5.57;;;3.33;;
16401;SDS011;8310;44.626;11.176;2023-09-08T13:36:28;4.68;;;3.25;;
16401;SDS011;8310;44.626;11.176;2023-09-08T13:38:55;10.32;;;3.60;;
16401;SDS011;8310;44.626;11.176;2023-09-08T13:41:23;6.05;;;3.42;;
16401;SDS011;8310;44.626;11.176;2023-09-08T13:46:19;8.68;;;3.95;;
16401;SDS011;8310;44.626;11.176;2023-09-08T13:48:48;5.55;;;3.13;;
16401;SDS011;8310;44.626;11.176;2023-09-08T13:51:15;7.55;;;3.75;;
16401;SDS011;8310;44.626;11.176;2023-09-08T13:53:42;5.78;;;3.13;;
16401;SDS011;8310;44.626;11.176;2023-09-08T13:56:10;12.02;;;3.97;;
16401;SDS011;8310;44.626;11.176;2023-09-08T13:58:38;7.03;;;3.40;;
16401;SDS011;8310;44.626;11.176;2023-09-08T14:01:06;10.98;;;3.83;;
16401;SDS011;8310;44.626;11.176;2023-09-08T14:03:34;9.07;;;3.63;;
16401;SDS011;8310;44.626;11.176;2023-09-08T14:06:03;12.45;;;4.00;;
16401;SDS011;8310;44.626;11.176;2023-09-08T14:08:31;8.45;;;3.85;;
16401;SDS011;8310;44.626;11.176;2023-09-08T14:10:59;6.95;;;4.07;;
16401;SDS011;8310;44.626;11.176;2023-09-08T14:13:26;3.58;;;3.22;;
16401;SDS011;8310;44.626;11.176;2023-09-08T14:15:54;5.40;;;3.47;;
16401;SDS011;8310;44.626;11.176;2023-09-08T14:18:22;8.18;;;3.58;;
16401;SDS011;8310;44.626;11.176;2023-09-08T14:20:49;9.02;;;3.67;;
16401;SDS011;8310;44.626;11.176;2023-09-08T14:23:19;7.00;;;3.90;;
16401;SDS011;8310;44.626;11.176;2023-09-08T14:25:48;10.98;;;3.60;;
16401;SDS011;8310;44.626;11.176;2023-09-08T14:28:16;5.10;;;3.35;;
16401;SDS011;8310;44.626;11.176;2023-09-08T14:30:44;9.20;;;3.85;;
16401;SDS011;8310;44.626;11.176;2023-09-08T14:33:11;10.27;;;3.67;;
16401;SDS011;8310;44.626;11.176;2023-09-08T14:38:08;10.10;;;3.17;;
16401;SDS011;8310;44.626;11.176;2023-09-08T14:40:36;6.15;;;3.33;;
16401;SDS011;8310;44.626;11.176;2023-09-08T14:43:04;6.00;;;3.42;;
16401;SDS011;8310;44.626;11.176;2023-09-08T14:45:31;5.85;;;3.30;;
16401;SDS011;8310;44.626;11.176;2023-09-08T14:47:58;8.38;;;3.90;;
16401;SDS011;8310;44.626;11.176;2023-09-08T14:50:26;6.55;;;3.50;;
16401;SDS011;8310;44.626;11.176;2023-09-08T14:52:53;9.98;;;3.15;;
16401;SDS011;8310;44.626;11.176;2023-09-08T14:55:21;6.95;;;3.65;;
16401;SDS011;8310;44.626;11.176;2023-09-08T14:57:50;7.43;;;3.58;;
16401;SDS011;8310;44.626;11.176;2023-09-08T15:00:18;12.95;;;3.67;;
16401;SDS011;8310;44.626;11.176;2023-09-08T15:05:13;11.63;;;3.33;;
16401;SDS011;8310;44.626;11.176;2023-09-08T15:07:41;11.25;;;3.63;;
16401;SDS011;8310;44.626;11.176;2023-09-08T15:10:08;13.80;;;3.53;;
16401;SDS011;8310;44.626;11.176;2023-09-08T15:12:36;5.78;;;3.70;;
16401;SDS011;8310;44.626;11.176;2023-09-08T15:15:06;9.23;;;3.40;;
16401;SDS011;8310;44.626;11.176;2023-09-08T15:17:34;7.07;;;3.40;;
16401;SDS011;8310;44.626;11.176;2023-09-08T15:20:02;9.27;;;3.63;;
16401;SDS011;8310;44.626;11.176;2023-09-08T15:22:30;5.93;;;3.53;;
16401;SDS011;8310;44.626;11.176;2023-09-08T15:24:57;8.40;;;3.53;;